createdAt,value
2023-05-16T00:00:48.315Z,75.67
2023-05-16T00:03:20.593Z,75.73
2023-05-16T00:05:56.184Z,76.05
2023-05-16T00:08:28.770Z,76.22
2023-05-16T00:11:01.709Z,76.23
2023-05-16T00:13:34.183Z,76.60
2023-05-16T00:16:07.167Z,76.85
2023-05-16T00:18:40.387Z,77.51
2023-05-16T00:21:15.268Z,76.97
2023-05-16T00:23:47.432Z,76.36
2023-05-16T00:26:19.662Z,76.19
2023-05-16T00:28:52.907Z,76.68
2023-05-16T00:31:25.247Z,77.47
2023-05-16T00:33:57.718Z,77.46
2023-05-16T00:36:35.398Z,77.49
2023-05-16T00:39:07.748Z,77.44
2023-05-16T00:41:40.114Z,77.65
2023-05-16T00:44:12.399Z,77.72
2023-05-16T00:46:44.633Z,77.64
2023-05-16T00:49:17.173Z,77.60
2023-05-16T00:51:54.196Z,77.61
2023-05-16T00:54:29.828Z,77.66
2023-05-16T00:57:02.156Z,77.59
2023-05-16T00:59:34.504Z,77.80
2023-05-16T01:02:07.049Z,77.82
2023-05-16T01:04:42.725Z,77.82
2023-05-16T01:07:17.864Z,77.70
2023-05-16T01:09:50.498Z,77.73
2023-05-16T01:12:35.943Z,77.69
2023-05-16T01:15:16.204Z,78.01
2023-05-16T01:18:00.931Z,78.04
2023-05-16T01:20:48.413Z,77.96
2023-05-16T01:23:44.589Z,78.02
2023-05-16T01:26:23.949Z,78.32
2023-05-16T01:28:58.342Z,78.47
2023-05-16T01:31:30.804Z,78.35
2023-05-16T01:34:03.241Z,78.35
2023-05-16T01:36:43.609Z,78.35
2023-05-16T01:39:24.607Z,78.28
2023-05-16T01:42:09.671Z,78.27
2023-05-16T01:44:49.460Z,78.10
2023-05-16T01:47:25.690Z,78.09
2023-05-16T01:50:07.691Z,78.03
2023-05-16T01:52:46.598Z,78.02
2023-05-16T01:55:25.566Z,77.94
2023-05-16T01:58:02.758Z,77.92
2023-05-16T02:00:35.329Z,77.92
2023-05-16T02:03:07.826Z,78.28
2023-05-16T02:05:40.132Z,78.51
2023-05-16T02:08:13.603Z,78.62
2023-05-16T02:10:45.807Z,78.69
2023-05-16T02:13:20.672Z,78.64
2023-05-16T02:15:53.164Z,78.88
2023-05-16T02:18:26.221Z,78.93
2023-05-16T02:20:58.661Z,78.94
2023-05-16T02:23:30.987Z,79.02
2023-05-16T02:26:03.534Z,79.18
2023-05-16T02:28:39.004Z,79.29
2023-05-16T02:31:11.314Z,79.85
2023-05-16T02:33:43.532Z,79.84
2023-05-16T02:36:16.523Z,80.08
2023-05-16T02:38:48.851Z,80.16
2023-05-16T02:41:22.471Z,80.31
2023-05-16T02:43:57.304Z,80.39
2023-05-16T02:46:31.584Z,80.80
2023-05-16T02:49:04.422Z,80.66
2023-05-16T02:51:36.604Z,80.77
2023-05-16T02:54:10.097Z,80.83
2023-05-16T02:56:42.312Z,80.77
2023-05-16T02:59:17.427Z,80.84
2023-05-16T03:01:49.661Z,80.92
2023-05-16T03:04:23.069Z,80.73
2023-05-16T03:06:55.242Z,80.85
2023-05-16T03:09:27.665Z,80.86
2023-05-16T03:11:59.792Z,80.76
2023-05-16T03:14:34.528Z,80.73
2023-05-16T03:17:06.959Z,80.85
2023-05-16T03:19:39.667Z,80.98
2023-05-16T03:22:11.847Z,81.00
2023-05-16T03:24:45.157Z,81.10
2023-05-16T03:27:17.421Z,81.14
2023-05-16T03:29:52.207Z,81.19
2023-05-16T03:32:24.343Z,81.23
2023-05-16T03:34:56.506Z,81.21
2023-05-16T03:37:29.330Z,81.23
2023-05-16T03:40:01.592Z,81.32
2023-05-16T03:42:34.130Z,81.28
2023-05-16T03:45:10.799Z,81.19
2023-05-16T03:47:43.143Z,81.17
2023-05-16T03:50:15.661Z,81.28
2023-05-16T03:52:47.864Z,81.33
2023-05-16T03:55:20.203Z,81.43
2023-05-16T03:57:53.364Z,81.33
2023-05-16T04:00:28.205Z,81.27
2023-05-16T04:03:00.596Z,81.14
2023-05-16T04:05:32.833Z,81.19
2023-05-16T04:08:05.369Z,81.15
2023-05-16T04:10:37.546Z,81.14
2023-05-16T04:13:10.126Z,81.17
2023-05-16T04:15:44.904Z,81.21
2023-05-16T04:18:17.503Z,81.35
2023-05-16T04:20:50.480Z,81.36
2023-05-16T04:23:22.667Z,81.37
2023-05-16T04:25:55.422Z,81.39
2023-05-16T04:28:27.858Z,81.51
2023-05-16T04:31:03.287Z,81.79
2023-05-16T04:33:35.587Z,81.69
2023-05-16T04:36:08.829Z,81.72
2023-05-16T04:38:42.004Z,81.52
2023-05-16T04:41:14.195Z,81.39
2023-05-16T04:43:46.821Z,81.36
2023-05-16T04:46:22.234Z,81.26
2023-05-16T04:48:54.941Z,81.16
2023-05-16T04:51:27.346Z,80.88
2023-05-16T04:53:59.490Z,80.99
2023-05-16T04:56:31.651Z,81.04
2023-05-16T04:59:04.351Z,80.65
2023-05-16T05:01:39.923Z,80.54
2023-05-16T05:04:12.510Z,80.50
2023-05-16T05:06:44.678Z,80.31
2023-05-16T05:09:17.456Z,80.31
2023-05-16T05:11:49.632Z,79.99
2023-05-16T05:14:21.920Z,79.68
2023-05-16T05:16:56.698Z,79.49
2023-05-16T05:19:28.901Z,78.95
2023-05-16T05:22:01.046Z,79.03
2023-05-16T05:24:33.340Z,78.91
2023-05-16T05:27:05.755Z,78.68
2023-05-16T05:29:38.063Z,78.28
2023-05-16T05:32:12.949Z,77.71
2023-05-16T05:34:45.202Z,77.60
2023-05-16T05:37:17.598Z,77.30
2023-05-16T05:39:49.895Z,77.22
2023-05-16T05:42:22.095Z,76.51
2023-05-16T05:44:54.248Z,76.58
2023-05-16T05:47:29.138Z,76.89
2023-05-16T05:50:02.826Z,76.71
2023-05-16T05:52:35.011Z,76.63
2023-05-16T05:55:07.438Z,76.29
2023-05-16T05:57:39.618Z,75.52
2023-05-16T06:00:13.060Z,75.07
2023-05-16T06:02:47.976Z,74.70
2023-05-16T06:05:20.351Z,75.05
2023-05-16T06:07:52.622Z,73.43
2023-05-16T06:10:24.765Z,73.10
2023-05-16T06:12:56.990Z,72.22
2023-05-16T06:15:29.914Z,71.46
2023-05-16T06:18:05.019Z,71.18
2023-05-16T06:20:37.210Z,70.43
2023-05-16T06:23:09.472Z,70.21
2023-05-16T06:25:41.654Z,70.21
2023-05-16T06:28:14.068Z,69.76
2023-05-16T06:30:47.999Z,69.53
2023-05-16T06:33:22.873Z,69.11
2023-05-16T06:35:55.233Z,68.81
2023-05-16T06:38:27.459Z,69.44
2023-05-16T06:40:59.635Z,68.98
2023-05-16T06:43:31.849Z,67.95
2023-05-16T06:46:04.152Z,68.80
2023-05-16T06:48:39.155Z,67.47
2023-05-16T06:51:11.383Z,66.39
2023-05-16T06:53:43.708Z,66.18
2023-05-16T06:56:15.999Z,66.51
2023-05-16T06:58:49.699Z,66.21
2023-05-16T07:01:21.989Z,66.91
2023-05-16T07:03:56.963Z,66.84
2023-05-16T07:06:29.206Z,66.87
2023-05-16T07:09:02.446Z,66.42
2023-05-16T07:11:34.789Z,65.22
2023-05-16T07:14:07.080Z,65.35
2023-05-16T07:16:39.420Z,64.81
2023-05-16T07:19:14.280Z,65.08
2023-05-16T07:21:46.590Z,64.28
2023-05-16T07:24:18.803Z,64.77
2023-05-16T07:26:51.295Z,63.90
2023-05-16T07:29:23.852Z,63.37
2023-05-16T07:31:56.389Z,63.91
2023-05-16T07:34:31.694Z,63.58
2023-05-16T07:37:03.891Z,62.95
2023-05-16T07:39:36.383Z,63.20
2023-05-16T07:42:08.752Z,63.72
2023-05-16T07:44:41.029Z,62.15
2023-05-16T07:47:13.193Z,61.22
2023-05-16T07:49:48.180Z,60.39
2023-05-16T07:52:20.400Z,59.89
2023-05-16T07:54:52.511Z,59.89
2023-05-16T07:57:25.302Z,60.09
2023-05-16T07:59:58.107Z,59.91
2023-05-16T08:02:31.575Z,59.09
2023-05-16T08:05:06.522Z,58.72
2023-05-16T08:07:38.824Z,59.36
2023-05-16T08:10:13.794Z,60.32
2023-05-16T08:12:46.598Z,59.84
2023-05-16T08:15:18.946Z,58.75
2023-05-16T08:17:51.343Z,59.41
2023-05-16T08:20:26.125Z,60.82
2023-05-16T08:22:59.118Z,61.51
2023-05-16T08:25:31.709Z,62.69
2023-05-16T08:28:04.534Z,64.33
2023-05-16T08:30:36.749Z,63.19
2023-05-16T08:33:10.629Z,62.91
2023-05-16T08:35:46.958Z,60.91
2023-05-16T08:38:19.500Z,59.26
2023-05-16T08:40:51.702Z,56.83
2023-05-16T08:43:24.206Z,53.85
2023-05-16T08:45:56.946Z,53.16
2023-05-16T08:48:32.709Z,54.36
2023-05-16T08:51:13.660Z,55.72
2023-05-16T08:53:54.590Z,55.36
2023-05-16T08:56:28.886Z,54.17
2023-05-16T08:59:02.372Z,52.36
2023-05-16T09:01:35.158Z,52.14
2023-05-16T09:04:10.949Z,51.26
2023-05-16T09:06:45.777Z,52.39
2023-05-16T09:09:18.162Z,52.09
2023-05-16T09:11:50.939Z,52.38
2023-05-16T09:14:23.493Z,51.08
2023-05-16T09:17:11.519Z,51.24
2023-05-16T09:19:48.789Z,48.98
2023-05-16T09:22:23.787Z,47.28
2023-05-16T09:24:55.917Z,47.82
2023-05-16T09:27:28.412Z,48.59
2023-05-16T09:30:03.278Z,48.25
2023-05-16T09:32:36.169Z,47.00
2023-05-16T09:35:09.203Z,46.49
2023-05-16T09:37:49.558Z,45.54
2023-05-16T09:40:25.208Z,45.72
2023-05-16T09:43:08.044Z,45.32
2023-05-16T09:45:40.988Z,44.93
2023-05-16T09:48:16.011Z,45.80
2023-05-16T09:50:53.574Z,46.84
2023-05-16T09:53:35.829Z,47.44
2023-05-16T09:56:09.937Z,47.46
2023-05-16T09:58:44.019Z,46.51
2023-05-16T10:01:16.894Z,46.28
2023-05-16T10:03:49.952Z,45.23
2023-05-16T10:06:25.278Z,44.83
2023-05-16T10:09:02.945Z,45.39
2023-05-16T10:11:36.792Z,45.38
2023-05-16T10:14:10.936Z,45.61
2023-05-16T10:16:48.808Z,44.94
2023-05-16T10:19:24.351Z,42.92
2023-05-16T10:22:02.557Z,42.21
2023-05-16T10:24:47.595Z,43.30
2023-05-16T10:27:21.613Z,44.13
2023-05-16T10:29:55.922Z,46.07
2023-05-16T10:32:30.106Z,47.38
2023-05-16T10:35:03.444Z,47.26
2023-05-16T10:37:37.410Z,46.54
2023-05-16T10:40:15.853Z,44.87
2023-05-16T10:42:58.514Z,43.77
2023-05-16T10:45:31.290Z,44.70
2023-05-16T10:48:08.949Z,44.77
2023-05-16T10:50:43.989Z,45.54
2023-05-16T10:53:22.617Z,46.03
2023-05-16T10:56:12.076Z,46.08
2023-05-16T10:58:46.205Z,45.36
2023-05-16T11:01:23.780Z,46.39
2023-05-16T11:04:10.317Z,46.02
2023-05-16T11:06:54.854Z,43.22
2023-05-16T11:09:30.041Z,43.54
2023-05-16T11:12:06.706Z,42.80
2023-05-16T11:14:47.821Z,42.54
2023-05-16T11:17:27.803Z,41.96
2023-05-16T11:20:04.203Z,39.27
2023-05-16T11:22:37.558Z,38.93
2023-05-16T11:25:12.164Z,38.66
2023-05-16T11:27:51.500Z,40.51
2023-05-16T11:30:24.905Z,41.67
2023-05-16T11:32:59.341Z,41.52
2023-05-16T11:35:31.790Z,42.04
2023-05-16T11:38:04.056Z,42.43
2023-05-16T11:40:36.399Z,43.13
2023-05-16T11:43:11.661Z,44.15
2023-05-16T11:45:43.919Z,44.71
2023-05-16T11:48:24.734Z,44.12
2023-05-16T11:51:05.118Z,45.23
2023-05-16T11:53:38.391Z,45.32
2023-05-16T11:56:13.076Z,44.58
2023-05-16T11:58:48.613Z,45.28
2023-05-16T12:01:20.789Z,46.07
2023-05-16T12:03:59.798Z,47.40
2023-05-16T12:06:32.601Z,47.91
2023-05-16T12:09:10.626Z,48.60
2023-05-16T12:11:43.397Z,48.28
2023-05-16T12:14:19.188Z,46.75
2023-05-16T12:16:52.202Z,45.69
2023-05-16T12:19:25.877Z,45.14
2023-05-16T12:21:59.108Z,45.22
2023-05-16T12:24:34.691Z,45.17
2023-05-16T12:27:06.947Z,45.37
2023-05-16T12:29:42.026Z,46.82
2023-05-16T12:32:14.316Z,47.29
2023-05-16T12:34:54.988Z,47.26
2023-05-16T12:37:27.274Z,45.92
2023-05-16T12:40:04.463Z,45.10
2023-05-16T12:42:37.059Z,45.22
2023-05-16T12:45:19.792Z,45.06
2023-05-16T12:47:52.260Z,45.65
2023-05-16T12:50:24.869Z,46.42
2023-05-16T12:52:59.056Z,46.58
2023-05-16T12:55:31.309Z,45.68
2023-05-16T12:58:05.531Z,45.08
2023-05-16T13:00:41.034Z,44.99
2023-05-16T13:03:13.318Z,43.68
2023-05-16T13:05:45.969Z,44.17
2023-05-16T13:08:18.253Z,44.99
2023-05-16T13:10:50.937Z,45.63
2023-05-16T13:13:35.509Z,46.67
2023-05-16T13:16:11.466Z,47.89
2023-05-16T13:18:43.788Z,47.70
2023-05-16T13:21:16.302Z,47.38
2023-05-16T13:23:48.516Z,47.22
2023-05-16T13:26:21.816Z,46.97
2023-05-16T13:28:55.286Z,46.90
2023-05-16T13:31:30.160Z,46.67
2023-05-16T13:34:02.372Z,47.41
2023-05-16T13:36:49.398Z,47.69
2023-05-16T13:39:26.032Z,48.15
2023-05-16T13:42:00.180Z,48.58
2023-05-16T13:44:32.550Z,48.38
2023-05-16T13:47:08.001Z,49.00
2023-05-16T13:49:40.313Z,49.23
2023-05-16T13:52:12.625Z,46.92
2023-05-16T13:54:45.128Z,43.62
2023-05-16T13:57:17.422Z,42.53
2023-05-16T14:00:11.522Z,42.90
2023-05-16T14:02:45.124Z,43.71
2023-05-16T14:05:17.376Z,44.78
2023-05-16T14:07:49.596Z,45.40
2023-05-16T14:10:21.852Z,45.76
2023-05-16T14:12:54.210Z,45.39
2023-05-16T14:15:26.901Z,45.72
2023-05-16T14:18:04.170Z,45.66
2023-05-16T14:20:36.379Z,46.65
2023-05-16T14:23:08.643Z,47.30
2023-05-16T14:25:40.945Z,47.50
2023-05-16T14:28:13.366Z,48.03
2023-05-16T14:30:47.913Z,47.51
2023-05-16T14:33:22.927Z,47.33
2023-05-16T14:35:55.139Z,47.88
2023-05-16T14:38:28.242Z,47.92
2023-05-16T14:41:00.523Z,47.04
2023-05-16T14:43:32.671Z,46.40
2023-05-16T14:46:04.893Z,45.28
2023-05-16T14:48:39.903Z,44.34
2023-05-16T14:51:12.235Z,46.06
2023-05-16T14:53:46.777Z,45.71
2023-05-16T14:56:20.415Z,45.54
2023-05-16T14:58:52.780Z,45.78
2023-05-16T15:01:25.476Z,46.51
2023-05-16T15:04:00.375Z,45.96
2023-05-16T15:06:32.511Z,45.24
2023-05-16T15:09:05.998Z,45.35
2023-05-16T15:11:38.181Z,45.72
2023-05-16T15:14:11.227Z,45.44
2023-05-16T15:16:43.464Z,46.04
2023-05-16T15:19:18.564Z,46.58
2023-05-16T15:21:50.832Z,45.88
2023-05-16T15:24:23.346Z,46.05
2023-05-16T15:26:55.689Z,46.55
2023-05-16T15:29:28.067Z,46.73
2023-05-16T15:32:00.420Z,45.75
2023-05-16T15:34:35.302Z,45.16
2023-05-16T15:37:07.675Z,45.08
2023-05-16T15:39:40.169Z,45.35
2023-05-16T15:42:13.011Z,45.66
2023-05-16T15:44:45.333Z,46.00
2023-05-16T15:47:17.638Z,45.50
2023-05-16T15:49:52.644Z,45.44
2023-05-16T15:52:24.875Z,45.75
2023-05-16T15:54:57.091Z,45.84
2023-05-16T15:57:29.305Z,46.19
2023-05-16T16:00:01.731Z,46.62
2023-05-16T16:02:33.999Z,47.59
2023-05-16T16:05:09.338Z,48.11
2023-05-16T16:07:41.475Z,48.69
2023-05-16T16:10:14.919Z,48.92
2023-05-16T16:12:47.083Z,48.82
2023-05-16T16:15:19.936Z,49.43
2023-05-16T16:17:52.207Z,49.71
2023-05-16T16:20:27.168Z,50.19
2023-05-16T16:22:59.378Z,50.60
2023-05-16T16:25:31.589Z,51.57
2023-05-16T16:28:04.078Z,52.35
2023-05-16T16:30:36.321Z,54.18
2023-05-16T16:33:08.565Z,55.84
2023-05-16T16:35:43.443Z,57.80
2023-05-16T16:38:15.957Z,61.33
2023-05-16T16:40:48.186Z,64.00
2023-05-16T16:43:20.410Z,65.59
2023-05-16T16:45:52.644Z,66.90
2023-05-16T16:48:24.937Z,66.98
2023-05-16T16:50:59.720Z,68.06
2023-05-16T16:53:32.532Z,68.78
2023-05-16T16:56:04.775Z,68.39
2023-05-16T16:58:37.064Z,54.63
2023-05-16T17:01:10.013Z,50.48
2023-05-16T17:03:42.370Z,51.62
2023-05-16T17:06:17.169Z,51.93
2023-05-16T17:08:49.700Z,52.91
2023-05-16T17:11:23.628Z,54.06
2023-05-16T17:13:59.446Z,54.85
2023-05-16T17:16:31.742Z,56.72
2023-05-16T17:19:04.785Z,56.91
2023-05-16T17:21:40.938Z,58.16
2023-05-16T17:24:13.632Z,59.28
2023-05-16T17:26:46.009Z,60.28
2023-05-16T17:29:18.323Z,61.54
2023-05-16T17:31:50.592Z,62.30
2023-05-16T17:34:23.521Z,63.13
2023-05-16T17:36:58.342Z,63.54
2023-05-16T17:39:30.606Z,61.94
2023-05-16T17:42:02.906Z,61.38
2023-05-16T17:44:35.165Z,60.69
2023-05-16T17:47:07.434Z,61.17
2023-05-16T17:49:39.684Z,60.81
2023-05-16T17:52:15.243Z,61.51
2023-05-16T17:54:47.444Z,61.39
2023-05-16T17:57:19.876Z,61.40
2023-05-16T17:59:52.101Z,61.18
2023-05-16T18:02:24.348Z,61.62
2023-05-16T18:04:56.590Z,61.65
2023-05-16T18:07:31.547Z,62.22
2023-05-16T18:10:03.796Z,61.90
2023-05-16T18:12:36.210Z,60.96
2023-05-16T18:15:09.199Z,59.62
2023-05-16T18:17:41.503Z,58.88
2023-05-16T18:20:15.385Z,58.19
2023-05-16T18:22:51.821Z,57.79
2023-05-16T18:25:25.500Z,58.07
2023-05-16T18:27:57.819Z,58.68
2023-05-16T18:30:30.737Z,59.64
2023-05-16T18:33:03.977Z,60.25
2023-05-16T18:35:36.178Z,60.74
2023-05-16T18:38:17.394Z,61.15
2023-05-16T18:40:56.988Z,61.67
2023-05-16T18:43:29.250Z,61.75
2023-05-16T18:46:01.479Z,62.16
2023-05-16T18:48:35.908Z,62.10
2023-05-16T18:51:08.910Z,62.74
2023-05-16T18:53:43.653Z,63.30
2023-05-16T18:56:15.917Z,63.39
2023-05-16T18:58:48.185Z,63.58
2023-05-16T19:01:22.475Z,63.47
2023-05-16T19:03:55.087Z,63.63
2023-05-16T19:06:27.492Z,63.93
2023-05-16T19:09:02.284Z,64.08
2023-05-16T19:11:34.424Z,64.62
2023-05-16T19:14:06.864Z,64.76
2023-05-16T19:16:39.479Z,65.13
2023-05-16T19:19:11.834Z,65.89
2023-05-16T19:21:44.237Z,66.28
2023-05-16T19:24:19.324Z,66.64
2023-05-16T19:26:51.624Z,67.08
2023-05-16T19:29:23.870Z,67.47
2023-05-16T19:31:56.200Z,68.03
2023-05-16T19:34:28.761Z,68.25
2023-05-16T19:37:02.733Z,68.44
2023-05-16T19:39:37.816Z,68.69
2023-05-16T19:42:10.736Z,68.94
2023-05-16T19:44:43.036Z,69.28
2023-05-16T19:47:15.328Z,69.78
2023-05-16T19:49:47.795Z,70.14
2023-05-16T19:52:20.065Z,70.51
2023-05-16T19:54:54.869Z,70.68
2023-05-16T19:57:27.212Z,71.10
2023-05-16T19:59:59.405Z,71.18
2023-05-16T20:02:31.744Z,71.74
2023-05-16T20:05:04.678Z,71.88
2023-05-16T20:07:37.038Z,71.92
2023-05-16T20:10:13.671Z,72.42
2023-05-16T20:12:45.993Z,72.75
2023-05-16T20:15:19.070Z,72.98
2023-05-16T20:17:51.446Z,73.14
2023-05-16T20:20:23.874Z,73.32
2023-05-16T20:22:56.212Z,73.46
2023-05-16T20:25:32.327Z,73.43
2023-05-16T20:28:04.737Z,73.50
2023-05-16T20:30:37.233Z,73.65
2023-05-16T20:33:09.624Z,73.97
2023-05-16T20:35:41.855Z,73.85
2023-05-16T20:38:14.238Z,73.82
2023-05-16T20:40:49.378Z,73.89
2023-05-16T20:43:21.684Z,74.03
2023-05-16T20:45:53.964Z,74.08
2023-05-16T20:48:26.633Z,74.22
2023-05-16T20:50:59.125Z,74.43
2023-05-16T20:53:34.439Z,74.41
2023-05-16T20:56:09.742Z,74.73
2023-05-16T20:58:42.391Z,74.96
2023-05-16T21:01:14.672Z,75.05
2023-05-16T21:03:46.935Z,75.21
2023-05-16T21:06:19.180Z,75.38
2023-05-16T21:08:51.618Z,75.21
2023-05-16T21:11:27.830Z,75.58
2023-05-16T21:14:00.074Z,75.85
2023-05-16T21:16:32.791Z,76.01
2023-05-16T21:19:05.365Z,75.97
2023-05-16T21:21:37.749Z,76.14
2023-05-16T21:24:10.594Z,76.41
2023-05-16T21:26:45.471Z,76.48
2023-05-16T21:29:17.943Z,76.45
2023-05-16T21:31:50.194Z,76.76
2023-05-16T21:34:22.442Z,76.71
2023-05-16T21:36:54.657Z,76.73
2023-05-16T21:39:26.992Z,76.81
2023-05-16T21:42:01.809Z,76.89
2023-05-16T21:44:34.273Z,77.25
2023-05-16T21:47:06.502Z,77.30
2023-05-16T21:49:38.952Z,77.44
2023-05-16T21:52:11.548Z,77.64
2023-05-16T21:54:43.780Z,77.88
2023-05-16T21:57:18.599Z,78.22
2023-05-16T21:59:51.932Z,78.21
2023-05-16T22:02:24.208Z,78.56
2023-05-16T22:04:57.365Z,78.76
2023-05-16T22:07:30.356Z,79.08
2023-05-16T22:10:03.310Z,79.47
2023-05-16T22:12:38.117Z,79.80
2023-05-16T22:15:11.512Z,79.85
2023-05-16T22:17:44.232Z,80.12
2023-05-16T22:20:17.268Z,80.43
2023-05-16T22:22:50.919Z,80.62
2023-05-16T22:25:23.231Z,80.69
2023-05-16T22:27:58.100Z,80.93
2023-05-16T22:30:30.278Z,81.26
2023-05-16T22:33:03.916Z,81.82
2023-05-16T22:35:36.258Z,81.76
2023-05-16T22:38:08.554Z,82.03
2023-05-16T22:40:41.331Z,81.89
2023-05-16T22:43:16.257Z,82.27
2023-05-16T22:45:51.654Z,82.49
2023-05-16T22:48:23.994Z,82.49
2023-05-16T22:50:56.277Z,82.73
2023-05-16T22:53:28.604Z,82.98
2023-05-16T22:56:00.981Z,83.32
2023-05-16T22:58:35.868Z,83.50
2023-05-16T23:01:08.700Z,83.61
2023-05-16T23:03:41.115Z,83.86
2023-05-16T23:06:13.303Z,84.14
2023-05-16T23:08:45.885Z,84.20
2023-05-16T23:11:19.920Z,84.38
2023-05-16T23:13:54.724Z,84.51
2023-05-16T23:16:27.010Z,84.73
2023-05-16T23:18:59.549Z,84.61
2023-05-16T23:21:32.118Z,84.89
2023-05-16T23:24:04.346Z,84.82
2023-05-16T23:26:36.577Z,84.84
2023-05-16T23:29:11.570Z,84.89
2023-05-16T23:31:43.796Z,85.08
2023-05-16T23:34:16.178Z,85.05
2023-05-16T23:36:48.369Z,85.34
2023-05-16T23:39:21.672Z,85.34
2023-05-16T23:41:53.854Z,84.93
2023-05-16T23:44:31.600Z,84.76
2023-05-16T23:47:03.891Z,85.19
2023-05-16T23:49:36.300Z,85.06
2023-05-16T23:52:10.107Z,84.62
2023-05-16T23:54:42.308Z,84.81
2023-05-16T23:57:14.516Z,84.38
2023-05-16T23:59:49.351Z,84.54
